Time;durP1;ratioP1;P1;durP2;ratioP2;P2;SDS_P1;SDS_P2;PMS_P1;PMS_P2;Temp;Humidity;BMP_temperature;BMP_pressure;BME280_temperature;BME280_humidity;BME280_pressure;Samples;Min_cycle;Max_cycle;Signal;HPM_P1;HPM_P2
2021/05/11 00:01:36;;;;;;;13.00;5.10;;;;;;;11.44;75.08;101083.44;5020443;28;20061;-69
2021/05/11 00:04:03;;;;;;;12.88;5.55;;;;;;;11.45;75.91;101087.84;5021063;28;20068;-69
2021/05/11 00:06:30;;;;;;;13.32;5.45;;;;;;;11.44;75.67;101086.13;5022548;28;20058;-69
2021/05/11 00:08:57;;;;;;;12.80;4.50;;;;;;;11.42;75.16;101087.09;5022279;28;20180;-69
2021/05/11 00:11:24;;;;;;;13.57;4.72;;;;;;;11.38;75.96;101080.97;5021524;28;20515;-69
2021/05/11 00:13:51;;;;;;;13.57;4.75;;;;;;;11.40;76.26;101089.81;5017518;28;20088;-69
2021/05/11 00:16:18;;;;;;;13.05;4.32;;;;;;;11.37;75.02;101095.22;5026526;28;20060;-69
2021/05/11 00:18:45;;;;;;;10.40;4.93;;;;;;;11.34;75.52;101089.97;5017628;28;20465;-69
2021/05/11 00:21:12;;;;;;;12.80;4.93;;;;;;;11.31;75.08;101096.31;5023906;28;20045;-69
2021/05/11 00:23:39;;;;;;;13.13;4.60;;;;;;;11.30;75.65;101088.34;5017415;28;20352;-69
2021/05/11 00:26:06;;;;;;;10.98;5.00;;;;;;;11.29;75.50;101094.59;5022657;28;20368;-69
2021/05/11 00:28:32;;;;;;;8.27;4.18;;;;;;;11.26;75.76;101089.38;5020459;28;20080;-69
2021/05/11 00:31:00;;;;;;;12.45;4.82;;;;;;;11.29;76.72;101087.47;5020762;28;20141;-69
2021/05/11 00:33:27;;;;;;;12.10;4.78;;;;;;;11.29;76.32;101082.13;5024326;28;20085;-69
2021/05/11 00:35:54;;;;;;;11.82;4.72;;;;;;;11.28;76.36;101082.19;5017410;28;20341;-69
2021/05/11 00:38:20;;;;;;;11.85;4.07;;;;;;;11.29;76.25;101083.91;5024270;28;20053;-69
2021/05/11 00:40:47;;;;;;;11.95;4.50;;;;;;;11.28;75.82;101076.84;5018652;28;20064;-69
2021/05/11 00:43:14;;;;;;;10.27;4.40;;;;;;;11.24;75.90;101080.50;5018824;28;20065;-69
2021/05/11 00:45:40;;;;;;;11.68;4.80;;;;;;;11.18;75.86;101078.91;5024112;28;20072;-69
2021/05/11 00:48:08;;;;;;;11.27;4.25;;;;;;;11.18;76.92;101070.91;5021020;28;20061;-69
2021/05/11 00:50:35;;;;;;;12.18;4.40;;;;;;;11.15;76.35;101071.88;5020674;28;20065;-69
2021/05/11 00:53:02;;;;;;;11.88;4.55;;;;;;;11.12;76.18;101082.66;5020941;28;20057;-69
2021/05/11 00:55:29;;;;;;;13.50;5.05;;;;;;;11.10;77.34;101079.16;5019185;28;20057;-69
2021/05/11 00:57:57;;;;;;;12.05;5.32;;;;;;;11.10;77.97;101075.59;5019189;28;20073;-69
2021/05/11 01:00:24;;;;;;;15.35;4.68;;;;;;;11.05;77.20;101082.88;5019873;28;20085;-69
2021/05/11 01:02:51;;;;;;;13.35;5.35;;;;;;;11.02;77.65;101082.03;5022045;28;20057;-69
2021/05/11 01:05:19;;;;;;;14.65;4.90;;;;;;;10.98;77.42;101082.16;5017718;28;20146;-69
2021/05/11 01:07:46;;;;;;;9.55;4.38;;;;;;;10.96;77.91;101078.69;5024511;28;20175;-69
2021/05/11 01:10:13;;;;;;;12.05;5.07;;;;;;;10.97;78.04;101075.97;5019796;28;20084;-70
2021/05/11 01:12:40;;;;;;;14.63;5.35;;;;;;;10.95;77.87;101075.16;5017011;28;20070;-70
2021/05/11 01:15:08;;;;;;;11.68;4.57;;;;;;;10.92;77.83;101069.88;5019690;28;20111;-70
2021/05/11 01:17:37;;;;;;;12.15;4.72;;;;;;;10.88;78.27;101075.34;5019495;28;20068;-70
2021/05/11 01:20:06;;;;;;;14.57;5.10;;;;;;;10.85;78.58;101073.66;5023113;28;20068;-70
2021/05/11 01:22:50;;;;;;;11.77;4.70;;;;;;;10.83;78.10;101063.03;5017700;28;20814;-71
2021/05/11 01:25:19;;;;;;;;;;;;;;;10.83;78.31;101068.38;5024630;28;20063;-70
2021/05/11 01:28:02;;;;;;;14.07;5.25;;;;;;;10.83;79.39;101076.38;5020410;28;19963;-70
2021/05/11 01:31:00;;;;;;;9.23;4.15;;;;;;;10.82;79.38;101068.41;5021361;28;20057;-70
2021/05/11 01:47:47;;;;;;;11.65;4.90;;;;;;;10.51;78.92;101079.09;5011449;28;20064;-70
2021/05/11 01:50:19;;;;;;;16.88;5.20;;;;;;;10.43;79.45;101073.97;5018513;28;20065;-70
2021/05/11 01:52:57;;;;;;;11.50;5.40;;;;;;;10.40;78.97;101069.63;5020312;28;20069;-70
2021/05/11 02:22:53;;;;;;;14.13;5.55;;;;;;;10.02;81.54;101062.59;5020609;28;20050;-69
2021/05/11 02:25:21;;;;;;;12.70;5.35;;;;;;;10.00;81.25;101059.09;5017575;28;20148;-69
2021/05/11 02:27:50;;;;;;;14.15;5.53;;;;;;;9.97;80.95;101060.03;5019328;28;20087;-70
2021/05/11 02:30:17;;;;;;;16.17;5.78;;;;;;;9.94;81.47;101059.25;5015498;28;20564;-69
2021/05/11 02:32:44;;;;;;;11.43;4.30;;;;;;;9.92;80.65;101064.63;5035752;28;20091;-69
2021/05/11 02:35:13;;;;;;;9.15;4.97;;;;;;;9.89;81.46;101056.69;5016227;28;20068;-69
2021/05/11 02:37:41;;;;;;;13.70;5.10;;;;;;;9.82;82.10;101055.97;5020235;28;20068;-69
2021/05/11 02:40:10;;;;;;;12.23;5.43;;;;;;;9.82;81.87;101050.66;5019834;28;20068;-69
2021/05/11 02:42:38;;;;;;;15.02;5.80;;;;;;;9.81;82.39;101048.06;5020169;28;20061;-69
2021/05/11 02:45:10;;;;;;;15.27;5.50;;;;;;;9.77;82.28;101044.56;5022240;28;20061;-69
2021/05/11 02:47:47;;;;;;;14.25;5.20;;;;;;;9.76;82.82;101033.97;5019042;28;20065;-69
2021/05/11 02:50:15;;;;;;;14.98;5.40;;;;;;;9.74;82.44;101031.34;5021378;28;20049;-69
2021/05/11 02:52:42;;;;;;;15.88;5.40;;;;;;;9.68;82.38;101037.69;5018610;28;20057;-69
2021/05/11 02:55:10;;;;;;;13.63;5.63;;;;;;;9.65;82.34;101039.53;5021141;28;20061;-69
2021/05/11 02:57:36;;;;;;;16.58;5.30;;;;;;;9.59;81.85;101040.59;5018463;28;20152;-69
2021/05/11 03:00:06;;;;;;;13.93;6.20;;;;;;;9.55;81.96;101041.56;5019809;28;20088;-69
2021/05/11 03:02:33;;;;;;;13.13;5.03;;;;;;;9.49;82.04;101041.72;5018107;28;20217;-69
2021/05/11 03:05:01;;;;;;;14.68;5.90;;;;;;;9.43;83.13;101042.75;5032277;28;20057;-69
2021/05/11 03:07:27;;;;;;;15.43;5.78;;;;;;;9.42;83.07;101042.78;5018059;28;20061;-69
2021/05/11 03:09:54;;;;;;;12.05;5.80;;;;;;;9.41;83.30;101041.03;5017942;28;20066;-69
2021/05/11 03:12:21;;;;;;;13.73;5.82;;;;;;;9.38;83.06;101047.31;5017388;28;20065;-69
2021/05/11 03:14:48;;;;;;;13.02;5.88;;;;;;;9.31;82.45;101041.25;5019701;28;20089;-69
2021/05/11 03:17:15;;;;;;;18.15;7.05;;;;;;;9.26;84.01;101040.50;5017062;28;20064;-69
2021/05/11 03:19:43;;;;;;;13.65;6.15;;;;;;;9.23;84.03;101045.88;5039387;28;20053;-68
2021/05/11 03:22:09;;;;;;;13.27;5.60;;;;;;;9.20;83.63;101043.28;5019588;28;21203;-70
2021/05/11 03:24:38;;;;;;;14.40;6.43;;;;;;;9.12;83.43;101046.09;5025255;28;20065;-72
2021/05/11 03:27:06;;;;;;;13.45;5.53;;;;;;;9.12;83.95;101053.22;5020388;28;20147;-69
2021/05/11 03:29:33;;;;;;;14.10;6.22;;;;;;;9.08;83.82;101057.75;5023059;28;20064;-68
2021/05/11 03:31:59;;;;;;;16.48;6.18;;;;;;;9.03;83.09;101053.44;5024324;28;20061;-68
2021/05/11 03:34:31;;;;;;;13.65;6.15;;;;;;;9.01;83.62;101050.81;5019783;28;20057;-69
2021/05/11 03:36:58;;;;;;;14.93;5.80;;;;;;;8.93;84.51;101045.66;5025905;28;20237;-69
2021/05/11 03:39:25;;;;;;;17.05;7.22;;;;;;;8.93;84.67;101056.28;5020195;28;20072;-70
2021/05/11 03:41:55;;;;;;;19.48;7.07;;;;;;;8.89;84.26;101057.28;5022926;28;20049;-69
2021/05/11 03:44:25;;;;;;;20.25;7.20;;;;;;;8.90;84.87;101063.47;5018019;28;20449;-70
2021/05/11 03:46:53;;;;;;;19.10;8.15;;;;;;;8.91;85.53;101066.09;5022350;28;20061;-70
2021/05/11 03:49:20;;;;;;;19.95;8.32;;;;;;;8.88;84.53;101074.16;5023152;28;20066;-70
2021/05/11 03:51:48;;;;;;;16.73;7.53;;;;;;;8.88;84.86;101070.63;5021013;28;20310;-69
2021/05/11 03:54:16;;;;;;;16.70;6.90;;;;;;;8.84;85.20;101075.13;5023014;28;20385;-69
2021/05/11 03:56:43;;;;;;;19.40;8.65;;;;;;;8.81;85.16;101063.69;5020525;28;20084;-69
2021/05/11 03:59:11;;;;;;;17.02;7.65;;;;;;;8.74;84.66;101071.78;5022272;28;20061;-69
2021/05/11 04:01:38;;;;;;;18.77;7.35;;;;;;;8.75;85.59;101076.22;5020880;28;20057;-69
2021/05/11 04:04:05;;;;;;;16.85;7.45;;;;;;;8.74;85.75;101078.91;5019638;28;20065;-69
2021/05/11 04:06:32;;;;;;;15.95;7.22;;;;;;;8.75;85.98;101081.53;5023614;28;20429;-69
2021/05/11 04:09:07;;;;;;;25.08;8.52;;;;;;;8.76;85.21;101079.72;5021799;28;20530;-69
2021/05/11 04:11:55;;;;;;;19.67;7.78;;;;;;;8.78;86.38;101076.16;5023897;28;20061;-69
2021/05/11 04:17:08;;;;;;;22.67;8.88;;;;;;;8.76;85.75;101079.72;5024533;28;20192;-71
2021/05/11 04:19:36;;;;;;;23.85;11.60;;;;;;;8.76;85.93;101082.41;5021196;28;20492;-69
2021/05/11 04:22:03;;;;;;;20.70;10.38;;;;;;;8.73;85.82;101077.13;5021358;28;20064;-69
2021/05/11 04:24:31;;;;;;;41.65;15.70;;;;;;;8.75;86.24;101084.19;5023082;28;20088;-69
2021/05/11 04:26:58;;;;;;;34.90;13.35;;;;;;;8.79;86.15;101082.34;5018008;28;20482;-73
2021/05/11 04:29:27;;;;;;;29.70;12.27;;;;;;;8.81;86.42;101069.00;5021131;28;20072;-74
2021/05/11 04:31:54;;;;;;;26.15;10.95;;;;;;;8.81;86.10;101066.34;5019002;28;20084;-74
2021/05/11 04:34:22;;;;;;;22.88;8.27;;;;;;;8.79;86.39;101059.25;5024570;28;20148;-74
2021/05/11 04:36:49;;;;;;;18.77;7.18;;;;;;;8.85;86.25;101060.91;5016210;28;20057;-74
2021/05/11 04:39:18;;;;;;;16.67;8.20;;;;;;;8.94;87.77;101062.50;5022345;28;20518;-75
2021/05/11 04:41:46;;;;;;;15.20;6.95;;;;;;;8.98;87.17;101065.06;5021353;28;20072;-75
2021/05/11 04:44:15;;;;;;;20.50;9.07;;;;;;;9.05;87.82;101064.94;5021724;28;20136;-76
2021/05/11 04:46:47;;;;;;;21.45;9.60;;;;;;;9.10;88.16;101061.25;5022887;28;20404;-75
2021/05/11 04:49:16;;;;;;;18.95;8.40;;;;;;;9.16;88.10;101065.56;5036522;28;20072;-74
2021/05/11 04:51:43;;;;;;;19.60;9.02;;;;;;;9.20;87.66;101064.59;5021282;28;20613;-75
2021/05/11 04:54:12;;;;;;;18.38;7.97;;;;;;;9.24;87.51;101068.91;5020450;28;20108;-74
2021/05/11 04:56:39;;;;;;;22.33;9.55;;;;;;;9.28;86.89;101070.63;5023410;28;20063;-76
2021/05/11 04:59:08;;;;;;;18.15;8.57;;;;;;;9.33;86.86;101068.72;5020259;28;20400;-76
2021/05/11 05:01:35;;;;;;;20.45;9.35;;;;;;;9.39;87.07;101080.16;5022533;28;20495;-75
2021/05/11 05:04:03;;;;;;;18.55;8.60;;;;;;;9.41;86.35;101076.50;5019141;28;20111;-74
2021/05/11 05:06:31;;;;;;;20.55;9.25;;;;;;;9.48;86.73;101085.25;5021680;28;20058;-70
2021/05/11 05:08:58;;;;;;;20.83;9.10;;;;;;;9.51;86.24;101079.84;5018528;28;20339;-70
2021/05/11 05:11:25;;;;;;;19.02;8.40;;;;;;;9.52;85.79;101079.81;5021618;28;20068;-70
2021/05/11 05:13:53;;;;;;;21.83;9.45;;;;;;;9.56;85.72;101083.28;5021345;28;20053;-70
2021/05/11 05:16:21;;;;;;;21.25;8.25;;;;;;;9.59;85.70;101090.34;5017829;28;20068;-69
2021/05/11 05:18:49;;;;;;;19.00;8.55;;;;;;;9.62;85.58;101088.47;5021404;28;20063;-70
2021/05/11 05:21:18;;;;;;;22.58;7.78;;;;;;;9.64;85.18;101078.66;5020788;28;20320;-70
2021/05/11 05:23:48;;;;;;;21.67;8.40;;;;;;;9.77;85.20;101079.19;5019276;28;20277;-71
2021/05/11 05:26:18;;;;;;;22.00;9.05;;;;;;;9.95;84.56;101079.69;5015995;28;20053;-70
2021/05/11 05:28:45;;;;;;;21.77;8.63;;;;;;;10.20;84.03;101082.56;5018669;28;20057;-70
2021/05/11 05:31:12;;;;;;;20.08;8.55;;;;;;;10.60;82.68;101077.03;5022094;28;20361;-70
2021/05/11 05:33:40;;;;;;;24.13;8.55;;;;;;;10.66;82.43;101070.66;5017400;28;20057;-71
2021/05/11 05:36:08;;;;;;;19.42;8.43;;;;;;;10.71;81.92;101063.41;5020804;28;20057;-70
2021/05/11 05:38:39;;;;;;;19.67;8.20;;;;;;;10.81;82.15;101077.34;5018234;28;20079;-70
2021/05/11 05:41:09;;;;;;;23.50;8.88;;;;;;;10.94;81.76;101076.06;5018636;28;20468;-71
2021/05/11 05:43:40;;;;;;;18.53;9.27;;;;;;;11.01;81.70;101066.94;5018805;28;20069;-69
2021/05/11 05:46:07;;;;;;;20.40;9.50;;;;;;;11.10;81.11;101076.50;5022113;28;20309;-72
2021/05/11 05:48:34;;;;;;;24.60;8.10;;;;;;;11.14;81.22;101063.91;5021288;28;20061;-74
2021/05/11 05:51:04;;;;;;;25.60;8.52;;;;;;;11.47;80.49;101061.94;5017810;28;20069;-75
2021/05/11 05:53:34;;;;;;;17.63;8.00;;;;;;;11.83;79.26;101060.78;5020282;28;20456;-74
2021/05/11 05:56:02;;;;;;;19.30;8.13;;;;;;;11.84;79.33;101055.41;5014947;28;20073;-74
2021/05/11 05:58:30;;;;;;;21.80;8.02;;;;;;;11.99;77.87;101067.41;5019617;28;20057;-74
2021/05/11 06:01:00;;;;;;;17.83;8.32;;;;;;;11.96;78.12;101057.69;5015926;28;20064;-75
2021/05/11 06:03:34;;;;;;;21.27;8.98;;;;;;;11.94;77.53;101054.19;5035576;28;20391;-75
2021/05/11 06:06:04;;;;;;;15.63;7.20;;;;;;;12.07;77.64;101048.41;5016750;28;20107;-73
2021/05/11 06:08:32;;;;;;;21.60;7.70;;;;;;;12.45;76.19;101040.84;5014924;28;20406;-75
2021/05/11 06:11:05;;;;;;;16.20;7.65;;;;;;;12.68;74.96;101048.88;5016379;28;20065;-74
2021/05/11 06:13:37;;;;;;;17.30;8.10;;;;;;;13.07;74.65;101039.38;5014975;28;20153;-73
2021/05/11 06:18:50;;;;;;;16.95;7.85;;;;;;;13.91;71.40;101031.50;5033721;28;20061;-74
2021/05/11 06:21:18;;;;;;;21.20;8.07;;;;;;;14.39;70.99;101035.69;5010808;28;20057;-74
2021/05/11 06:23:46;;;;;;;16.60;7.65;;;;;;;14.71;68.60;101031.56;5014420;28;20068;-74
2021/05/11 06:26:13;;;;;;;19.48;7.15;;;;;;;14.98;67.03;101025.81;5032144;28;20061;-74
2021/05/11 06:28:43;;;;;;;15.63;7.45;;;;;;;15.31;65.46;101030.53;5011581;28;20550;-74
2021/05/11 06:31:11;;;;;;;18.50;7.28;;;;;;;15.52;64.60;101017.81;5017949;28;20389;-76
2021/05/11 06:33:39;;;;;;;15.65;7.40;;;;;;;15.59;63.42;101023.78;5017389;28;20057;-75
2021/05/11 06:36:07;;;;;;;15.30;6.82;;;;;;;15.73;63.72;101029.31;5019739;28;20057;-76
2021/05/11 06:38:35;;;;;;;14.73;7.22;;;;;;;16.09;62.41;101030.22;5013873;28;20075;-73
2021/05/11 06:41:02;;;;;;;21.13;7.60;;;;;;;16.03;62.44;101031.44;5016244;28;20654;-74
2021/05/11 06:43:31;;;;;;;18.27;8.20;;;;;;;16.39;62.32;101028.63;5013260;28;20364;-73
2021/05/11 06:46:21;;;;;;;13.82;6.95;;;;;;;16.67;61.75;101028.94;5015999;28;20399;-74
2021/05/11 06:48:55;;;;;;;20.30;7.50;;;;;;;16.67;62.24;101026.25;5014830;28;20064;-73
2021/05/11 06:54:10;;;;;;;20.40;8.10;;;;;;;16.92;59.74;101025.81;5015437;28;20061;-73
2021/05/11 06:56:39;;;;;;;20.73;7.95;;;;;;;16.92;60.74;101034.75;5020019;28;20069;-73
2021/05/11 06:59:06;;;;;;;17.75;7.20;;;;;;;17.55;60.09;101027.63;5018614;28;20061;-73
2021/05/11 07:01:34;;;;;;;20.05;7.88;;;;;;;17.72;59.41;101029.31;5021209;28;20057;-74
2021/05/11 07:04:01;;;;;;;18.00;8.90;;;;;;;17.48;59.38;101034.34;5017635;28;20228;-73
2021/05/11 07:06:28;;;;;;;18.55;7.57;;;;;;;17.42;60.53;101032.88;5019660;28;20065;-73
2021/05/11 07:08:59;;;;;;;17.95;7.40;;;;;;;17.49;59.09;101028.00;5019716;28;20072;-73
2021/05/11 07:13:06;;;;;;;18.27;8.32;;;;;;;17.74;58.52;101030.09;5020253;28;20065;-74
2021/05/11 07:14:17;;;;;;;18.73;7.82;;;;;;;17.80;58.83;101027.03;5022525;28;20057;-73
2021/05/11 07:16:44;;;;;;;25.05;8.65;;;;;;;17.73;58.87;101020.28;5017213;28;20061;-72
2021/05/11 07:19:12;;;;;;;19.77;7.68;;;;;;;17.46;59.63;101020.94;5032034;28;20483;-68
2021/05/11 07:21:39;;;;;;;16.83;7.88;;;;;;;17.97;59.31;101017.97;5018857;28;20057;-69
2021/05/11 07:24:07;;;;;;;18.52;8.20;;;;;;;17.95;58.52;101027.13;5020400;28;20061;-69
2021/05/11 07:26:45;;;;;;;20.45;8.63;;;;;;;18.06;58.49;101021.94;5016029;28;20515;-69
2021/05/11 07:29:27;;;;;;;21.60;8.20;;;;;;;18.25;57.18;101022.56;5017838;28;20061;-69
2021/05/11 07:31:54;;;;;;;17.33;8.40;;;;;;;18.73;57.13;101013.31;5019524;28;20081;-69
2021/05/11 07:34:21;;;;;;;19.63;9.18;;;;;;;19.15;57.13;101014.25;5017354;28;20451;-70
2021/05/11 07:36:48;;;;;;;17.65;8.27;;;;;;;19.03;56.08;101010.50;5022808;28;20179;-69
2021/05/11 07:39:17;;;;;;;21.15;8.45;;;;;;;19.11;55.90;101018.13;5019588;28;20535;-69
2021/05/11 07:41:45;;;;;;;19.63;8.07;;;;;;;19.60;55.10;101014.88;5024956;28;20068;-69
2021/05/11 07:44:12;;;;;;;17.05;7.68;;;;;;;20.16;54.71;101012.00;5018535;28;20057;-69
2021/05/11 07:46:47;;;;;;;19.85;8.95;;;;;;;19.63;55.49;101008.38;5024970;28;20089;-69
2021/05/11 07:49:52;;;;;;;22.02;9.88;;;;;;;19.66;54.80;101010.88;5020850;28;20057;-68
2021/05/11 07:56:29;;;;;;;18.27;8.65;;;;;;;20.57;53.19;101007.31;5022092;28;20065;-69
2021/05/11 08:14:41;;;;;;;17.17;9.57;;;;;;;19.63;54.23;100997.56;5022908;28;20061;-69
2021/05/11 08:17:08;;;;;;;16.77;9.20;;;;;;;19.87;53.97;100997.75;5016700;28;20062;-69
2021/05/11 08:19:52;;;;;;;21.98;9.65;;;;;;;19.87;54.44;101000.47;5025021;28;20106;-70
2021/05/11 08:27:47;;;;;;;16.50;8.25;;;;;;;20.52;51.23;101002.25;5021764;28;20133;-69
2021/05/11 08:30:16;;;;;;;17.60;8.95;;;;;;;20.01;52.96;101000.41;5018394;28;20140;-70
2021/05/11 08:32:43;;;;;;;20.25;9.63;;;;;;;19.27;54.14;101016.16;5019416;28;20059;-69
2021/05/11 08:35:11;;;;;;;20.33;9.68;;;;;;;19.02;56.18;101020.47;5018412;28;20068;-69
2021/05/11 08:37:38;;;;;;;19.75;9.50;;;;;;;19.08;55.25;101019.19;5018323;28;20072;-68
2021/05/11 08:40:07;;;;;;;18.92;9.93;;;;;;;18.40;56.83;101012.63;5018248;28;20475;-69
2021/05/11 08:42:35;;;;;;;22.73;9.63;;;;;;;18.79;56.07;101021.03;5021981;28;20062;-68
2021/05/11 08:45:06;;;;;;;23.05;9.48;;;;;;;18.87;56.31;101021.44;5019474;28;20061;-69
2021/05/11 08:47:36;;;;;;;22.88;10.15;;;;;;;18.62;57.10;101022.97;5020796;28;20065;-69
2021/05/11 08:50:16;;;;;;;17.52;9.25;;;;;;;18.66;56.93;101020.94;5017425;28;20125;-68
2021/05/11 08:52:55;;;;;;;22.90;10.07;;;;;;;18.49;57.25;101022.03;5020707;28;20452;-68
2021/05/11 09:06:34;;;;;;;24.15;10.65;;;;;;;18.55;56.63;101021.63;4993182;28;20304;-69
2021/05/11 09:09:20;;;;;;;25.67;9.38;;;;;;;18.81;56.88;101017.28;5014841;28;20057;-70
2021/05/11 09:26:09;;;;;;;18.10;9.73;;;;;;;19.98;54.92;101019.56;5056969;28;20079;-67
2021/05/11 09:28:41;;;;;;;19.60;9.38;;;;;;;20.29;52.85;101018.28;5055485;28;21004;-68
2021/05/11 09:31:31;;;;;;;19.42;9.48;;;;;;;19.87;51.99;101019.41;5059794;28;20072;-68
2021/05/11 09:34:14;;;;;;;16.88;9.07;;;;;;;20.11;53.08;101016.88;5051689;28;20152;-68
2021/05/11 09:51:10;;;;;;;18.33;9.50;;;;;;;19.53;54.25;101027.97;5032304;28;20064;-68
2021/05/11 09:59:40;;;;;;;20.50;9.73;;;;;;;19.86;53.82;101023.13;5045971;28;20061;-68
2021/05/11 10:40:10;;;;;;;23.95;12.05;;;;;;;19.38;52.03;101007.34;5027003;28;20061;-75
2021/05/11 10:48:37;;;;;;;26.70;12.30;;;;;;;20.01;53.62;100997.69;5044016;28;20064;-73
2021/05/11 10:51:06;;;;;;;24.90;12.13;;;;;;;19.98;54.99;100994.31;5036554;28;20057;-74
2021/05/11 10:53:52;;;;;;;22.85;11.75;;;;;;;20.10;53.73;100997.03;5042801;28;20068;-74
2021/05/11 10:56:55;;;;;;;22.55;11.23;;;;;;;20.00;55.04;100997.78;5039812;28;20052;-73
2021/05/11 11:02:27;;;;;;;21.92;11.55;;;;;;;20.17;54.28;100993.91;5032075;28;20057;-74
2021/05/11 11:04:55;;;;;;;30.52;11.88;;;;;;;20.02;53.15;100991.28;5042410;28;20065;-73
2021/05/11 11:07:37;;;;;;;24.95;12.70;;;;;;;20.44;52.76;100978.41;5040212;28;20107;-73
2021/05/11 11:10:07;;;;;;;24.33;13.05;;;;;;;20.65;52.02;100970.63;5039448;28;20057;-75
2021/05/11 11:12:41;;;;;;;21.27;11.18;;;;;;;20.87;50.65;100964.50;5039413;28;20176;-73
2021/05/11 11:15:15;;;;;;;21.27;12.15;;;;;;;21.14;50.47;100954.41;5037556;28;20063;-75
2021/05/11 11:17:47;;;;;;;22.98;10.98;;;;;;;21.46;49.75;100960.13;5040441;28;20061;-74
2021/05/11 11:20:14;;;;;;;25.10;12.32;;;;;;;21.09;49.70;100949.31;5036743;28;20067;-74
2021/05/11 11:25:28;;;;;;;24.73;11.63;;;;;;;21.60;49.67;100940.09;5038430;28;20065;-70
2021/05/11 11:27:55;;;;;;;25.00;11.48;;;;;;;21.81;48.79;100932.13;5037911;28;20067;-68
2021/05/11 11:30:23;;;;;;;26.20;12.73;;;;;;;21.66;48.23;100933.31;5037467;28;20080;-69
2021/05/11 11:32:50;;;;;;;23.38;11.65;;;;;;;21.50;48.01;100934.50;5041432;28;20063;-69
2021/05/11 11:35:19;;;;;;;21.45;12.05;;;;;;;21.41;49.06;100933.31;5036689;28;20071;-68
2021/05/11 11:37:47;;;;;;;21.00;10.48;;;;;;;22.10;48.11;100932.56;5039398;28;20418;-69
2021/05/11 11:40:17;;;;;;;25.50;12.07;;;;;;;21.19;49.08;100953.06;5032933;28;20072;-70
2021/05/11 11:42:46;;;;;;;16.73;7.95;;;;;;;19.66;51.31;100956.75;5039773;28;20469;-69
2021/05/11 11:45:26;;;;;;;15.07;7.03;;;;;;;19.85;52.37;100959.09;5039791;28;20064;-68
2021/05/11 11:47:57;;;;;;;14.90;8.00;;;;;;;19.92;51.88;100961.28;5042584;28;20083;-69
2021/05/11 11:50:25;;;;;;;17.90;7.72;;;;;;;20.08;51.73;100968.34;5037669;28;20053;-69
2021/05/11 11:53:02;;;;;;;15.90;6.95;;;;;;;19.12;52.77;100979.28;5041295;28;20172;-69
2021/05/11 11:55:55;;;;;;;14.82;6.38;;;;;;;18.62;52.65;100992.38;5039351;28;20060;-69
2021/05/11 11:58:23;;;;;;;14.88;5.90;;;;;;;18.63;51.33;100980.63;5035720;28;20064;-69
2021/05/11 12:00:51;;;;;;;13.95;5.55;;;;;;;18.25;51.22;100973.97;5040345;28;20060;-69
2021/05/11 12:03:22;;;;;;;13.32;5.40;;;;;;;18.34;52.51;100985.13;5033409;28;20075;-69
2021/05/11 12:05:51;;;;;;;13.18;5.57;;;;;;;17.90;53.92;100981.53;5038153;28;20071;-69
2021/05/11 12:08:21;;;;;;;15.75;8.05;;;;;;;17.95;55.56;100984.81;5035095;28;20368;-69
2021/05/11 12:10:52;;;;;;;15.85;6.20;;;;;;;18.90;52.34;100983.41;5043737;28;20060;-68
2021/05/11 12:13:23;;;;;;;13.77;5.07;;;;;;;19.19;50.90;100994.16;5035454;28;20073;-69
2021/05/11 12:16:11;;;;;;;12.48;4.60;;;;;;;19.04;49.04;101002.31;5038930;28;20148;-69
2021/05/11 12:18:59;;;;;;;11.32;4.07;;;;;;;19.09;48.80;101011.97;5041294;28;20064;-69
2021/05/11 12:21:26;;;;;;;8.95;3.25;;;;;;;18.56;48.20;101014.38;5037219;28;20060;-69
2021/05/11 12:24:03;;;;;;;10.02;3.65;;;;;;;18.73;48.11;101016.00;5040142;28;20060;-68
2021/05/11 12:26:30;;;;;;;9.60;3.50;;;;;;;18.70;48.05;101019.78;5042033;28;20876;-69
2021/05/11 12:29:05;;;;;;;10.00;3.45;;;;;;;18.33;48.71;101021.22;5037687;28;20079;-69
2021/05/11 12:31:38;;;;;;;6.88;3.63;;;;;;;18.84;47.36;101022.50;5039713;28;20519;-70
2021/05/11 12:34:07;;;;;;;8.93;4.00;;;;;;;18.79;46.12;101013.78;5038308;28;20072;-69
2021/05/11 12:36:46;;;;;;;7.45;3.72;;;;;;;19.04;46.94;101002.31;5039724;28;20084;-69
2021/05/11 12:39:36;;;;;;;8.27;3.00;;;;;;;19.55;45.34;100996.25;5046807;28;20067;-69
2021/05/11 12:42:14;;;;;;;7.80;3.17;;;;;;;19.63;43.98;100993.03;5039142;28;20063;-69
2021/05/11 12:44:41;;;;;;;8.80;3.58;;;;;;;19.85;43.08;100992.44;5036977;28;20091;-69
2021/05/11 12:47:10;;;;;;;8.50;3.70;;;;;;;20.35;44.84;100995.31;5036193;28;20544;-68
2021/05/11 12:49:37;;;;;;;10.15;4.72;;;;;;;20.70;42.88;100994.66;5041600;28;20060;-69
2021/05/11 12:52:06;;;;;;;9.95;5.68;;;;;;;20.95;44.49;100985.59;5036797;28;20068;-69
2021/05/11 12:54:38;;;;;;;13.13;6.13;;;;;;;21.17;44.51;100984.03;5037928;28;20534;-69
2021/05/11 12:57:12;;;;;;;12.55;6.88;;;;;;;20.92;43.61;100979.56;5036514;28;20387;-69
2021/05/11 12:59:50;;;;;;;9.93;4.65;;;;;;;21.07;45.02;100981.13;5035623;28;20526;-70
2021/05/11 13:02:41;;;;;;;12.07;5.20;;;;;;;21.72;43.40;100979.00;5037763;28;20060;-69
2021/05/11 13:14:41;;;;;;;14.57;6.80;;;;;;;21.09;44.52;101000.88;5043759;28;21273;-69
2021/05/11 13:17:09;;;;;;;18.92;8.32;;;;;;;20.93;43.81;100986.72;5035798;28;20061;-69
2021/05/11 13:20:04;;;;;;;17.42;7.38;;;;;;;21.02;44.56;100992.31;5037252;28;20152;-68
2021/05/11 13:22:53;;;;;;;16.65;7.70;;;;;;;21.29;45.02;100987.69;5036496;28;20444;-70
2021/05/11 13:25:27;;;;;;;18.25;7.65;;;;;;;20.49;46.45;100995.19;5032916;28;20065;-68
2021/05/11 13:28:07;;;;;;;20.38;7.60;;;;;;;21.06;46.11;100999.25;5036693;28;20052;-70
2021/05/11 13:30:49;;;;;;;16.20;6.13;;;;;;;21.22;45.83;101000.84;5034842;28;20059;-70
2021/05/11 13:33:44;;;;;;;9.68;4.00;;;;;;;20.97;43.71;101007.19;5037978;28;20073;-69
2021/05/11 13:36:13;;;;;;;9.02;3.47;;;;;;;20.64;44.90;101014.97;5036755;28;20079;-69
2021/05/11 13:38:40;;;;;;;10.07;4.35;;;;;;;20.17;44.67;101005.59;5036771;28;20068;-69
2021/05/11 13:41:08;;;;;;;9.60;4.13;;;;;;;19.70;47.39;101012.41;5036336;28;20058;-70
2021/05/11 13:43:35;;;;;;;10.68;4.25;;;;;;;19.53;46.60;101013.53;5039533;28;20148;-70
2021/05/11 13:46:03;;;;;;;11.00;4.68;;;;;;;19.57;46.87;101018.66;5035736;28;20103;-70
2021/05/11 13:48:35;;;;;;;12.95;6.07;;;;;;;19.17;47.60;101031.25;5038118;28;20063;-69
2021/05/11 13:51:04;;;;;;;12.90;4.65;;;;;;;19.44;47.87;101027.69;5034115;28;20072;-68
2021/05/11 13:53:35;;;;;;;10.07;4.65;;;;;;;19.16;48.45;101021.41;5034933;28;20072;-68
2021/05/11 14:04:25;;;;;;;14.38;5.75;;;;;;;19.78;48.16;101001.97;5039966;28;21955;-69
2021/05/11 14:06:52;;;;;;;14.23;6.40;;;;;;;19.83;48.29;101005.22;5043818;28;20057;-69
2021/05/11 14:09:22;;;;;;;12.65;5.28;;;;;;;19.83;46.42;100998.94;5040214;28;20376;-68
2021/05/11 14:11:49;;;;;;;12.65;5.43;;;;;;;19.81;46.37;100995.50;5041350;28;20065;-68
2021/05/11 14:14:18;;;;;;;12.95;5.22;;;;;;;19.85;46.96;101000.56;5038265;28;20067;-69
2021/05/11 14:16:46;;;;;;;10.80;4.88;;;;;;;19.74;45.90;100998.59;5040561;28;20080;-69
2021/05/11 14:19:15;;;;;;;11.63;4.57;;;;;;;19.69;46.22;100994.44;5038726;28;20971;-69
2021/05/11 14:21:43;;;;;;;10.70;4.70;;;;;;;19.77;46.25;100992.13;5042681;28;20057;-69
2021/05/11 14:24:10;;;;;;;13.80;6.03;;;;;;;19.67;47.22;100989.13;5042641;28;20065;-69
2021/05/11 14:26:39;;;;;;;12.55;5.47;;;;;;;19.63;47.47;100987.63;5039560;28;20527;-68
2021/05/11 14:29:07;;;;;;;12.23;5.80;;;;;;;19.59;47.31;100978.81;5037917;28;20152;-68
2021/05/11 14:31:34;;;;;;;11.23;5.78;;;;;;;18.92;47.96;100988.72;5040000;28;20088;-69
2021/05/11 14:34:03;;;;;;;11.48;4.57;;;;;;;18.76;48.22;100991.50;5040819;28;20057;-68
2021/05/11 14:36:30;;;;;;;11.30;4.93;;;;;;;18.53;47.91;100999.22;5037765;28;20464;-68
2021/05/11 14:38:57;;;;;;;10.57;4.65;;;;;;;18.44;47.79;101002.53;5036371;28;20060;-69
2021/05/11 14:41:24;;;;;;;11.27;5.15;;;;;;;18.33;48.13;101007.72;5041620;28;20052;-68
2021/05/11 14:43:53;;;;;;;8.52;4.30;;;;;;;18.25;47.30;101006.38;5038984;28;20057;-69